sensor_id;sensor_type;location;lat;lon;timestamp;P1;durP1;ratioP1;P2;durP2;ratioP2
48853;SDS011;34673;52.808;17.856;2022-08-19T00:02:02;17.05;;;12.13;;
48853;SDS011;34673;52.808;17.856;2022-08-19T00:04:31;16.83;;;12.45;;
48853;SDS011;34673;52.808;17.856;2022-08-19T00:07:03;18.92;;;12.95;;
48853;SDS011;34673;52.808;17.856;2022-08-19T00:09:31;18.08;;;11.80;;
48853;SDS011;34673;52.808;17.856;2022-08-19T00:11:58;18.08;;;12.70;;
48853;SDS011;34673;52.808;17.856;2022-08-19T00:14:27;16.75;;;12.73;;
48853;SDS011;34673;52.808;17.856;2022-08-19T00:16:58;14.45;;;11.88;;
48853;SDS011;34673;52.808;17.856;2022-08-19T00:19:25;17.17;;;12.38;;
48853;SDS011;34673;52.808;17.856;2022-08-19T00:21:53;17.60;;;11.32;;
48853;SDS011;34673;52.808;17.856;2022-08-19T00:24:20;18.20;;;12.32;;
48853;SDS011;34673;52.808;17.856;2022-08-19T00:26:49;17.42;;;12.85;;
48853;SDS011;34673;52.808;17.856;2022-08-19T00:29:17;17.92;;;12.38;;
48853;SDS011;34673;52.808;17.856;2022-08-19T00:31:46;20.20;;;12.55;;
48853;SDS011;34673;52.808;17.856;2022-08-19T00:36:43;18.27;;;13.07;;
48853;SDS011;34673;52.808;17.856;2022-08-19T00:39:11;16.73;;;12.07;;
48853;SDS011;34673;52.808;17.856;2022-08-19T00:41:40;15.57;;;12.18;;
48853;SDS011;34673;52.808;17.856;2022-08-19T00:44:09;17.88;;;13.20;;
48853;SDS011;34673;52.808;17.856;2022-08-19T00:46:41;16.92;;;12.73;;
48853;SDS011;34673;52.808;17.856;2022-08-19T00:49:23;14.88;;;11.88;;
48853;SDS011;34673;52.808;17.856;2022-08-19T00:52:01;14.10;;;12.52;;
48853;SDS011;34673;52.808;17.856;2022-08-19T00:54:32;20.35;;;12.05;;
48853;SDS011;34673;52.808;17.856;2022-08-19T00:56:59;17.80;;;12.75;;
48853;SDS011;34673;52.808;17.856;2022-08-19T00:59:31;16.55;;;12.27;;
48853;SDS011;34673;52.808;17.856;2022-08-19T01:02:23;15.98;;;11.48;;
48853;SDS011;34673;52.808;17.856;2022-08-19T01:04:52;21.23;;;12.98;;
48853;SDS011;34673;52.808;17.856;2022-08-19T01:07:20;15.35;;;11.98;;
48853;SDS011;34673;52.808;17.856;2022-08-19T01:09:50;16.65;;;12.23;;
48853;SDS011;34673;52.808;17.856;2022-08-19T01:12:18;16.67;;;11.73;;
48853;SDS011;34673;52.808;17.856;2022-08-19T01:14:45;16.10;;;12.32;;
48853;SDS011;34673;52.808;17.856;2022-08-19T01:17:14;18.05;;;12.13;;
48853;SDS011;34673;52.808;17.856;2022-08-19T01:19:43;21.38;;;12.23;;
48853;SDS011;34673;52.808;17.856;2022-08-19T01:22:20;16.90;;;12.18;;
48853;SDS011;34673;52.808;17.856;2022-08-19T01:24:59;17.95;;;12.20;;
48853;SDS011;34673;52.808;17.856;2022-08-19T01:27:36;19.50;;;13.23;;
48853;SDS011;34673;52.808;17.856;2022-08-19T01:30:11;19.55;;;12.85;;
48853;SDS011;34673;52.808;17.856;2022-08-19T01:32:41;15.82;;;12.80;;
48853;SDS011;34673;52.808;17.856;2022-08-19T01:35:10;19.33;;;13.02;;
48853;SDS011;34673;52.808;17.856;2022-08-19T01:37:42;21.58;;;13.75;;
48853;SDS011;34673;52.808;17.856;2022-08-19T01:40:14;21.48;;;14.13;;
48853;SDS011;34673;52.808;17.856;2022-08-19T01:42:42;20.15;;;14.82;;
48853;SDS011;34673;52.808;17.856;2022-08-19T01:45:09;21.27;;;14.05;;
48853;SDS011;34673;52.808;17.856;2022-08-19T01:47:37;20.85;;;14.48;;
48853;SDS011;34673;52.808;17.856;2022-08-19T01:50:05;21.25;;;14.75;;
48853;SDS011;34673;52.808;17.856;2022-08-19T01:52:34;23.25;;;15.05;;
48853;SDS011;34673;52.808;17.856;2022-08-19T01:55:04;20.10;;;14.20;;
48853;SDS011;34673;52.808;17.856;2022-08-19T01:57:32;20.97;;;14.13;;
48853;SDS011;34673;52.808;17.856;2022-08-19T02:00:00;24.95;;;15.68;;
48853;SDS011;34673;52.808;17.856;2022-08-19T02:02:36;26.33;;;15.70;;
48853;SDS011;34673;52.808;17.856;2022-08-19T02:05:04;20.65;;;14.32;;
48853;SDS011;34673;52.808;17.856;2022-08-19T02:07:36;20.42;;;15.40;;
48853;SDS011;34673;52.808;17.856;2022-08-19T02:10:08;22.15;;;15.10;;
48853;SDS011;34673;52.808;17.856;2022-08-19T02:12:42;20.50;;;14.63;;
48853;SDS011;34673;52.808;17.856;2022-08-19T02:15:10;22.25;;;14.63;;
48853;SDS011;34673;52.808;17.856;2022-08-19T02:17:37;22.80;;;15.73;;
48853;SDS011;34673;52.808;17.856;2022-08-19T02:20:05;22.48;;;15.63;;
48853;SDS011;34673;52.808;17.856;2022-08-19T02:22:34;22.35;;;15.88;;
48853;SDS011;34673;52.808;17.856;2022-08-19T02:25:02;30.55;;;17.85;;
48853;SDS011;34673;52.808;17.856;2022-08-19T02:27:31;20.50;;;15.32;;
48853;SDS011;34673;52.808;17.856;2022-08-19T02:30:01;22.73;;;16.65;;
48853;SDS011;34673;52.808;17.856;2022-08-19T02:32:28;22.05;;;16.50;;
48853;SDS011;34673;52.808;17.856;2022-08-19T02:34:57;20.52;;;16.00;;
48853;SDS011;34673;52.808;17.856;2022-08-19T02:37:24;25.98;;;17.00;;
48853;SDS011;34673;52.808;17.856;2022-08-19T02:40:10;21.95;;;15.93;;
48853;SDS011;34673;52.808;17.856;2022-08-19T02:42:38;24.02;;;16.55;;
48853;SDS011;34673;52.808;17.856;2022-08-19T02:45:07;22.92;;;16.52;;
48853;SDS011;34673;52.808;17.856;2022-08-19T02:47:34;25.02;;;16.70;;
48853;SDS011;34673;52.808;17.856;2022-08-19T02:50:02;25.60;;;16.58;;
48853;SDS011;34673;52.808;17.856;2022-08-19T02:52:31;23.02;;;16.55;;
48853;SDS011;34673;52.808;17.856;2022-08-19T02:54:59;22.10;;;16.40;;
48853;SDS011;34673;52.808;17.856;2022-08-19T02:57:27;23.13;;;16.70;;
48853;SDS011;34673;52.808;17.856;2022-08-19T02:59:58;21.48;;;16.63;;
48853;SDS011;34673;52.808;17.856;2022-08-19T03:02:25;22.60;;;15.48;;
48853;SDS011;34673;52.808;17.856;2022-08-19T03:04:52;21.95;;;15.82;;
48853;SDS011;34673;52.808;17.856;2022-08-19T03:07:20;22.75;;;15.75;;
48853;SDS011;34673;52.808;17.856;2022-08-19T03:09:47;19.02;;;15.93;;
48853;SDS011;34673;52.808;17.856;2022-08-19T03:12:15;22.02;;;16.65;;
48853;SDS011;34673;52.808;17.856;2022-08-19T03:14:42;20.88;;;15.55;;
48853;SDS011;34673;52.808;17.856;2022-08-19T03:17:09;21.92;;;15.38;;
48853;SDS011;34673;52.808;17.856;2022-08-19T03:19:36;21.13;;;15.35;;
48853;SDS011;34673;52.808;17.856;2022-08-19T03:22:04;22.02;;;14.70;;
48853;SDS011;34673;52.808;17.856;2022-08-19T03:24:32;21.73;;;15.38;;
48853;SDS011;34673;52.808;17.856;2022-08-19T03:26:59;15.88;;;14.00;;
48853;SDS011;34673;52.808;17.856;2022-08-19T03:29:27;20.35;;;14.23;;
48853;SDS011;34673;52.808;17.856;2022-08-19T03:32:00;23.17;;;15.40;;
48853;SDS011;34673;52.808;17.856;2022-08-19T03:34:31;21.27;;;14.48;;
48853;SDS011;34673;52.808;17.856;2022-08-19T03:37:05;21.52;;;15.32;;
48853;SDS011;34673;52.808;17.856;2022-08-19T03:39:36;17.85;;;14.43;;
48853;SDS011;34673;52.808;17.856;2022-08-19T03:42:04;23.35;;;16.13;;
48853;SDS011;34673;52.808;17.856;2022-08-19T03:44:51;25.48;;;16.20;;
48853;SDS011;34673;52.808;17.856;2022-08-19T03:47:19;21.77;;;15.05;;
48853;SDS011;34673;52.808;17.856;2022-08-19T03:49:46;22.45;;;15.45;;
48853;SDS011;34673;52.808;17.856;2022-08-19T03:52:13;17.90;;;13.55;;
48853;SDS011;34673;52.808;17.856;2022-08-19T03:54:40;21.30;;;15.13;;
48853;SDS011;34673;52.808;17.856;2022-08-19T03:57:08;19.45;;;14.52;;
48853;SDS011;34673;52.808;17.856;2022-08-19T03:59:36;22.63;;;15.65;;
48853;SDS011;34673;52.808;17.856;2022-08-19T04:02:06;19.83;;;15.15;;
48853;SDS011;34673;52.808;17.856;2022-08-19T04:04:40;20.38;;;15.02;;
48853;SDS011;34673;52.808;17.856;2022-08-19T04:07:11;21.42;;;15.52;;
48853;SDS011;34673;52.808;17.856;2022-08-19T04:09:42;21.13;;;15.65;;
48853;SDS011;34673;52.808;17.856;2022-08-19T04:12:09;22.58;;;16.10;;
48853;SDS011;34673;52.808;17.856;2022-08-19T04:14:37;23.67;;;15.98;;
48853;SDS011;34673;52.808;17.856;2022-08-19T04:17:04;23.30;;;15.95;;
48853;SDS011;34673;52.808;17.856;2022-08-19T04:19:32;23.23;;;16.13;;
48853;SDS011;34673;52.808;17.856;2022-08-19T04:22:02;24.77;;;17.30;;
48853;SDS011;34673;52.808;17.856;2022-08-19T04:24:29;21.90;;;17.20;;
48853;SDS011;34673;52.808;17.856;2022-08-19T04:26:56;28.25;;;18.08;;
48853;SDS011;34673;52.808;17.856;2022-08-19T04:29:26;22.98;;;17.23;;
48853;SDS011;34673;52.808;17.856;2022-08-19T04:31:54;25.58;;;18.25;;
48853;SDS011;34673;52.808;17.856;2022-08-19T04:34:23;23.63;;;17.23;;
48853;SDS011;34673;52.808;17.856;2022-08-19T04:36:53;22.02;;;17.08;;
48853;SDS011;34673;52.808;17.856;2022-08-19T04:39:27;22.40;;;16.90;;
48853;SDS011;34673;52.808;17.856;2022-08-19T04:42:16;25.27;;;16.33;;
48853;SDS011;34673;52.808;17.856;2022-08-19T04:45:03;23.92;;;16.48;;
48853;SDS011;34673;52.808;17.856;2022-08-19T04:47:40;21.50;;;15.48;;
48853;SDS011;34673;52.808;17.856;2022-08-19T04:50:25;20.27;;;15.60;;
48853;SDS011;34673;52.808;17.856;2022-08-19T04:52:53;23.98;;;16.27;;
48853;SDS011;34673;52.808;17.856;2022-08-19T04:55:23;20.02;;;15.30;;
48853;SDS011;34673;52.808;17.856;2022-08-19T04:57:52;20.80;;;15.73;;
48853;SDS011;34673;52.808;17.856;2022-08-19T05:02:49;24.90;;;15.70;;
48853;SDS011;34673;52.808;17.856;2022-08-19T05:05:17;21.02;;;15.48;;
48853;SDS011;34673;52.808;17.856;2022-08-19T05:07:44;25.15;;;17.00;;
48853;SDS011;34673;52.808;17.856;2022-08-19T05:10:11;28.10;;;16.67;;
48853;SDS011;34673;52.808;17.856;2022-08-19T05:12:39;23.35;;;15.93;;
48853;SDS011;34673;52.808;17.856;2022-08-19T05:15:06;24.33;;;16.58;;
48853;SDS011;34673;52.808;17.856;2022-08-19T05:17:35;23.63;;;15.77;;
48853;SDS011;34673;52.808;17.856;2022-08-19T05:20:05;21.13;;;16.08;;
48853;SDS011;34673;52.808;17.856;2022-08-19T05:22:52;22.25;;;16.25;;
48853;SDS011;34673;52.808;17.856;2022-08-19T05:25:20;19.23;;;15.07;;
48853;SDS011;34673;52.808;17.856;2022-08-19T05:27:48;21.77;;;15.93;;
48853;SDS011;34673;52.808;17.856;2022-08-19T05:30:16;22.05;;;15.65;;
48853;SDS011;34673;52.808;17.856;2022-08-19T05:32:45;21.88;;;15.10;;
48853;SDS011;34673;52.808;17.856;2022-08-19T05:35:13;23.30;;;15.35;;
48853;SDS011;34673;52.808;17.856;2022-08-19T05:37:40;19.75;;;15.88;;
48853;SDS011;34673;52.808;17.856;2022-08-19T05:40:07;21.35;;;15.13;;
48853;SDS011;34673;52.808;17.856;2022-08-19T05:42:36;21.10;;;14.80;;
48853;SDS011;34673;52.808;17.856;2022-08-19T05:45:04;19.08;;;13.65;;
48853;SDS011;34673;52.808;17.856;2022-08-19T05:47:32;19.67;;;14.35;;
48853;SDS011;34673;52.808;17.856;2022-08-19T05:49:59;23.13;;;14.27;;
48853;SDS011;34673;52.808;17.856;2022-08-19T05:52:30;20.95;;;14.55;;
48853;SDS011;34673;52.808;17.856;2022-08-19T05:54:59;17.77;;;12.93;;
48853;SDS011;34673;52.808;17.856;2022-08-19T05:57:26;18.85;;;13.88;;
48853;SDS011;34673;52.808;17.856;2022-08-19T05:59:55;22.07;;;12.40;;
48853;SDS011;34673;52.808;17.856;2022-08-19T06:02:29;18.60;;;12.43;;
48853;SDS011;34673;52.808;17.856;2022-08-19T06:04:57;18.38;;;11.80;;
48853;SDS011;34673;52.808;17.856;2022-08-19T06:07:25;16.45;;;10.80;;
48853;SDS011;34673;52.808;17.856;2022-08-19T06:09:52;18.35;;;11.27;;
48853;SDS011;34673;52.808;17.856;2022-08-19T06:12:30;17.67;;;10.60;;
48853;SDS011;34673;52.808;17.856;2022-08-19T06:15:05;13.68;;;9.75;;
48853;SDS011;34673;52.808;17.856;2022-08-19T06:17:40;14.93;;;9.55;;
48853;SDS011;34673;52.808;17.856;2022-08-19T06:20:09;12.85;;;9.30;;
48853;SDS011;34673;52.808;17.856;2022-08-19T06:22:40;14.98;;;9.45;;
48853;SDS011;34673;52.808;17.856;2022-08-19T06:25:10;14.80;;;8.77;;
48853;SDS011;34673;52.808;17.856;2022-08-19T06:27:38;15.40;;;8.90;;
48853;SDS011;34673;52.808;17.856;2022-08-19T06:30:25;11.82;;;8.48;;
48853;SDS011;34673;52.808;17.856;2022-08-19T06:32:54;13.05;;;8.63;;
48853;SDS011;34673;52.808;17.856;2022-08-19T06:35:21;12.95;;;8.57;;
48853;SDS011;34673;52.808;17.856;2022-08-19T06:37:48;11.00;;;7.85;;
48853;SDS011;34673;52.808;17.856;2022-08-19T06:40:15;13.18;;;7.53;;
48853;SDS011;34673;52.808;17.856;2022-08-19T06:42:43;9.10;;;7.45;;
48853;SDS011;34673;52.808;17.856;2022-08-19T06:45:21;11.43;;;8.27;;
48853;SDS011;34673;52.808;17.856;2022-08-19T06:47:51;10.38;;;8.25;;
48853;SDS011;34673;52.808;17.856;2022-08-19T06:50:23;10.00;;;8.00;;
48853;SDS011;34673;52.808;17.856;2022-08-19T06:52:50;11.82;;;7.90;;
48853;SDS011;34673;52.808;17.856;2022-08-19T06:55:18;8.32;;;7.40;;
48853;SDS011;34673;52.808;17.856;2022-08-19T06:57:46;12.88;;;7.88;;
48853;SDS011;34673;52.808;17.856;2022-08-19T07:00:14;13.32;;;8.27;;
48853;SDS011;34673;52.808;17.856;2022-08-19T07:02:42;11.25;;;8.68;;
48853;SDS011;34673;52.808;17.856;2022-08-19T07:07:49;12.05;;;8.02;;
48853;SDS011;34673;52.808;17.856;2022-08-19T07:10:17;10.65;;;8.10;;
48853;SDS011;34673;52.808;17.856;2022-08-19T07:12:45;11.25;;;7.40;;
48853;SDS011;34673;52.808;17.856;2022-08-19T07:15:12;12.40;;;7.57;;
48853;SDS011;34673;52.808;17.856;2022-08-19T07:17:39;10.10;;;7.07;;
48853;SDS011;34673;52.808;17.856;2022-08-19T07:20:07;10.40;;;6.97;;
48853;SDS011;34673;52.808;17.856;2022-08-19T07:22:37;13.30;;;7.25;;
48853;SDS011;34673;52.808;17.856;2022-08-19T07:25:05;9.05;;;6.78;;
48853;SDS011;34673;52.808;17.856;2022-08-19T07:27:35;11.10;;;7.13;;
48853;SDS011;34673;52.808;17.856;2022-08-19T07:30:05;11.80;;;6.80;;
48853;SDS011;34673;52.808;17.856;2022-08-19T07:32:37;8.18;;;6.50;;
48853;SDS011;34673;52.808;17.856;2022-08-19T07:35:06;11.75;;;6.90;;
48853;SDS011;34673;52.808;17.856;2022-08-19T07:37:33;9.60;;;6.47;;
48853;SDS011;34673;52.808;17.856;2022-08-19T07:40:05;9.80;;;6.53;;
48853;SDS011;34673;52.808;17.856;2022-08-19T07:42:34;10.43;;;7.35;;
48853;SDS011;34673;52.808;17.856;2022-08-19T07:45:01;12.90;;;7.22;;
48853;SDS011;34673;52.808;17.856;2022-08-19T07:47:29;12.23;;;6.50;;
48853;SDS011;34673;52.808;17.856;2022-08-19T07:50:17;11.13;;;6.38;;
48853;SDS011;34673;52.808;17.856;2022-08-19T07:55:18;8.82;;;6.18;;
48853;SDS011;34673;52.808;17.856;2022-08-19T07:58:07;12.20;;;6.70;;
48853;SDS011;34673;52.808;17.856;2022-08-19T08:00:34;11.23;;;6.93;;
48853;SDS011;34673;52.808;17.856;2022-08-19T08:03:02;10.18;;;6.65;;
48853;SDS011;34673;52.808;17.856;2022-08-19T08:05:29;13.52;;;6.97;;
48853;SDS011;34673;52.808;17.856;2022-08-19T08:08:15;14.00;;;6.32;;
48853;SDS011;34673;52.808;17.856;2022-08-19T08:11:00;9.65;;;6.38;;
48853;SDS011;34673;52.808;17.856;2022-08-19T08:13:33;9.85;;;6.75;;
48853;SDS011;34673;52.808;17.856;2022-08-19T08:16:04;10.60;;;6.13;;
48853;SDS011;34673;52.808;17.856;2022-08-19T08:18:35;12.57;;;6.45;;
48853;SDS011;34673;52.808;17.856;2022-08-19T08:21:08;10.35;;;6.13;;
48853;SDS011;34673;52.808;17.856;2022-08-19T08:23:35;9.13;;;6.47;;
48853;SDS011;34673;52.808;17.856;2022-08-19T08:26:05;10.98;;;6.05;;
48853;SDS011;34673;52.808;17.856;2022-08-19T08:28:32;9.32;;;6.10;;
48853;SDS011;34673;52.808;17.856;2022-08-19T08:30:59;15.77;;;6.60;;
48853;SDS011;34673;52.808;17.856;2022-08-19T08:33:28;7.82;;;6.20;;
48853;SDS011;34673;52.808;17.856;2022-08-19T08:36:01;9.23;;;6.10;;
48853;SDS011;34673;52.808;17.856;2022-08-19T08:38:31;6.95;;;5.80;;
48853;SDS011;34673;52.808;17.856;2022-08-19T08:41:13;17.80;;;6.18;;
48853;SDS011;34673;52.808;17.856;2022-08-19T08:43:49;9.95;;;5.85;;
48853;SDS011;34673;52.808;17.856;2022-08-19T08:46:24;11.80;;;6.28;;
48853;SDS011;34673;52.808;17.856;2022-08-19T08:49:06;12.65;;;5.95;;
48853;SDS011;34673;52.808;17.856;2022-08-19T08:51:51;11.77;;;6.13;;
48853;SDS011;34673;52.808;17.856;2022-08-19T08:54:37;11.93;;;6.80;;
48853;SDS011;34673;52.808;17.856;2022-08-19T08:57:39;8.85;;;6.43;;
48853;SDS011;34673;52.808;17.856;2022-08-19T09:00:43;8.80;;;5.90;;
48853;SDS011;34673;52.808;17.856;2022-08-19T09:03:22;9.82;;;6.22;;
48853;SDS011;34673;52.808;17.856;2022-08-19T09:08:32;9.10;;;6.00;;
48853;SDS011;34673;52.808;17.856;2022-08-19T09:14:28;8.50;;;6.20;;
48853;SDS011;34673;52.808;17.856;2022-08-19T09:17:21;9.70;;;6.40;;
48853;SDS011;34673;52.808;17.856;2022-08-19T09:19:56;7.85;;;6.38;;
48853;SDS011;34673;52.808;17.856;2022-08-19T09:22:31;8.73;;;6.85;;
48853;SDS011;34673;52.808;17.856;2022-08-19T09:24:59;10.93;;;6.60;;
48853;SDS011;34673;52.808;17.856;2022-08-19T09:27:27;9.73;;;6.63;;
48853;SDS011;34673;52.808;17.856;2022-08-19T09:30:13;11.00;;;6.75;;
48853;SDS011;34673;52.808;17.856;2022-08-19T09:32:52;9.75;;;6.32;;
48853;SDS011;34673;52.808;17.856;2022-08-19T09:37:50;9.38;;;6.88;;
48853;SDS011;34673;52.808;17.856;2022-08-19T09:40:25;9.05;;;6.53;;
48853;SDS011;34673;52.808;17.856;2022-08-19T09:42:56;10.10;;;6.05;;
48853;SDS011;34673;52.808;17.856;2022-08-19T09:45:24;9.30;;;6.82;;
48853;SDS011;34673;52.808;17.856;2022-08-19T09:47:52;10.18;;;6.28;;
48853;SDS011;34673;52.808;17.856;2022-08-19T09:50:21;13.32;;;6.57;;
48853;SDS011;34673;52.808;17.856;2022-08-19T09:52:50;11.27;;;5.93;;
48853;SDS011;34673;52.808;17.856;2022-08-19T09:55:23;10.25;;;6.75;;
48853;SDS011;34673;52.808;17.856;2022-08-19T09:58:01;9.98;;;6.57;;
48853;SDS011;34673;52.808;17.856;2022-08-19T10:00:29;10.43;;;6.10;;
48853;SDS011;34673;52.808;17.856;2022-08-19T10:02:58;9.93;;;6.35;;
48853;SDS011;34673;52.808;17.856;2022-08-19T10:05:26;10.13;;;6.40;;
48853;SDS011;34673;52.808;17.856;2022-08-19T10:08:21;8.75;;;5.72;;
48853;SDS011;34673;52.808;17.856;2022-08-19T10:10:54;12.10;;;6.90;;
48853;SDS011;34673;52.808;17.856;2022-08-19T10:13:25;11.98;;;6.35;;
48853;SDS011;34673;52.808;17.856;2022-08-19T10:15:54;10.45;;;5.95;;
48853;SDS011;34673;52.808;17.856;2022-08-19T10:18:29;11.57;;;5.95;;
48853;SDS011;34673;52.808;17.856;2022-08-19T10:21:20;10.32;;;6.20;;
48853;SDS011;34673;52.808;17.856;2022-08-19T10:23:52;8.18;;;6.32;;
48853;SDS011;34673;52.808;17.856;2022-08-19T10:26:28;8.95;;;6.22;;
48853;SDS011;34673;52.808;17.856;2022-08-19T10:28:57;10.60;;;6.60;;
48853;SDS011;34673;52.808;17.856;2022-08-19T10:31:26;14.00;;;6.28;;
48853;SDS011;34673;52.808;17.856;2022-08-19T10:34:17;10.00;;;6.07;;
48853;SDS011;34673;52.808;17.856;2022-08-19T10:36:53;9.50;;;5.85;;
48853;SDS011;34673;52.808;17.856;2022-08-19T10:39:27;8.90;;;6.03;;
48853;SDS011;34673;52.808;17.856;2022-08-19T10:42:09;13.02;;;6.00;;
48853;SDS011;34673;52.808;17.856;2022-08-19T10:44:40;9.00;;;5.72;;
48853;SDS011;34673;52.808;17.856;2022-08-19T10:47:08;13.05;;;6.10;;
48853;SDS011;34673;52.808;17.856;2022-08-19T10:49:50;10.52;;;6.47;;
48853;SDS011;34673;52.808;17.856;2022-08-19T10:52:41;11.30;;;6.15;;
48853;SDS011;34673;52.808;17.856;2022-08-19T10:55:20;9.35;;;5.57;;
48853;SDS011;34673;52.808;17.856;2022-08-19T10:58:17;12.30;;;5.75;;
48853;SDS011;34673;52.808;17.856;2022-08-19T11:00:57;8.15;;;6.13;;
48853;SDS011;34673;52.808;17.856;2022-08-19T11:03:25;11.52;;;5.78;;
48853;SDS011;34673;52.808;17.856;2022-08-19T11:06:03;11.98;;;5.85;;
48853;SDS011;34673;52.808;17.856;2022-08-19T11:08:33;10.50;;;4.85;;
48853;SDS011;34673;52.808;17.856;2022-08-19T11:11:01;14.45;;;5.88;;
48853;SDS011;34673;52.808;17.856;2022-08-19T11:13:32;8.75;;;5.65;;
48853;SDS011;34673;52.808;17.856;2022-08-19T11:16:23;11.02;;;6.65;;
48853;SDS011;34673;52.808;17.856;2022-08-19T11:18:53;9.60;;;5.28;;
48853;SDS011;34673;52.808;17.856;2022-08-19T11:21:23;7.70;;;5.50;;
48853;SDS011;34673;52.808;17.856;2022-08-19T11:23:53;8.18;;;5.18;;
48853;SDS011;34673;52.808;17.856;2022-08-19T11:26:23;10.52;;;5.97;;
48853;SDS011;34673;52.808;17.856;2022-08-19T11:28:52;8.60;;;5.30;;
48853;SDS011;34673;52.808;17.856;2022-08-19T11:31:22;9.60;;;5.35;;
48853;SDS011;34673;52.808;17.856;2022-08-19T11:33:58;15.38;;;7.47;;
48853;SDS011;34673;52.808;17.856;2022-08-19T11:36:26;9.32;;;5.85;;
48853;SDS011;34673;52.808;17.856;2022-08-19T11:38:54;12.07;;;5.80;;
48853;SDS011;34673;52.808;17.856;2022-08-19T11:41:22;12.65;;;5.57;;
48853;SDS011;34673;52.808;17.856;2022-08-19T11:43:51;10.38;;;5.85;;
48853;SDS011;34673;52.808;17.856;2022-08-19T11:46:22;9.25;;;5.50;;
48853;SDS011;34673;52.808;17.856;2022-08-19T11:48:51;9.77;;;5.37;;
48853;SDS011;34673;52.808;17.856;2022-08-19T11:51:20;10.98;;;5.88;;
48853;SDS011;34673;52.808;17.856;2022-08-19T11:53:48;11.65;;;5.95;;
48853;SDS011;34673;52.808;17.856;2022-08-19T11:56:17;11.07;;;5.68;;
48853;SDS011;34673;52.808;17.856;2022-08-19T11:58:45;8.25;;;5.43;;
48853;SDS011;34673;52.808;17.856;2022-08-19T12:01:14;9.85;;;5.43;;
48853;SDS011;34673;52.808;17.856;2022-08-19T12:03:44;10.15;;;5.40;;
48853;SDS011;34673;52.808;17.856;2022-08-19T12:06:13;12.73;;;5.60;;
48853;SDS011;34673;52.808;17.856;2022-08-19T12:08:45;11.70;;;5.85;;
48853;SDS011;34673;52.808;17.856;2022-08-19T12:11:14;8.98;;;5.18;;
48853;SDS011;34673;52.808;17.856;2022-08-19T12:13:41;9.45;;;4.82;;
48853;SDS011;34673;52.808;17.856;2022-08-19T12:16:14;10.38;;;5.65;;
48853;SDS011;34673;52.808;17.856;2022-08-19T12:18:44;13.02;;;5.80;;
48853;SDS011;34673;52.808;17.856;2022-08-19T12:21:13;11.45;;;5.30;;
48853;SDS011;34673;52.808;17.856;2022-08-19T12:23:43;11.60;;;6.45;;
48853;SDS011;34673;52.808;17.856;2022-08-19T12:26:12;10.20;;;5.88;;
48853;SDS011;34673;52.808;17.856;2022-08-19T12:28:39;8.32;;;5.25;;
48853;SDS011;34673;52.808;17.856;2022-08-19T12:31:08;10.13;;;5.43;;
48853;SDS011;34673;52.808;17.856;2022-08-19T12:33:39;12.98;;;5.53;;
48853;SDS011;34673;52.808;17.856;2022-08-19T12:36:08;8.82;;;5.32;;
48853;SDS011;34673;52.808;17.856;2022-08-19T12:38:37;10.27;;;5.30;;
48853;SDS011;34673;52.808;17.856;2022-08-19T12:41:05;8.52;;;5.57;;
48853;SDS011;34673;52.808;17.856;2022-08-19T12:43:34;7.65;;;5.10;;
48853;SDS011;34673;52.808;17.856;2022-08-19T12:46:02;8.45;;;5.25;;
48853;SDS011;34673;52.808;17.856;2022-08-19T12:48:31;8.15;;;5.70;;
48853;SDS011;34673;52.808;17.856;2022-08-19T12:51:01;7.15;;;5.00;;
48853;SDS011;34673;52.808;17.856;2022-08-19T12:55:02;8.20;;;5.18;;
48853;SDS011;34673;52.808;17.856;2022-08-19T12:57:32;10.10;;;5.07;;
48853;SDS011;34673;52.808;17.856;2022-08-19T13:02:38;10.32;;;5.28;;
48853;SDS011;34673;52.808;17.856;2022-08-19T13:05:14;6.28;;;5.32;;
48853;SDS011;34673;52.808;17.856;2022-08-19T13:07:43;8.43;;;5.07;;
48853;SDS011;34673;52.808;17.856;2022-08-19T13:10:11;11.00;;;5.10;;
48853;SDS011;34673;52.808;17.856;2022-08-19T13:12:42;9.15;;;5.05;;
48853;SDS011;34673;52.808;17.856;2022-08-19T13:15:11;7.60;;;5.17;;
48853;SDS011;34673;52.808;17.856;2022-08-19T13:17:40;9.70;;;5.65;;
48853;SDS011;34673;52.808;17.856;2022-08-19T13:20:09;10.98;;;5.93;;
48853;SDS011;34673;52.808;17.856;2022-08-19T13:22:37;8.57;;;5.60;;
48853;SDS011;34673;52.808;17.856;2022-08-19T13:25:05;11.40;;;5.78;;
48853;SDS011;34673;52.808;17.856;2022-08-19T13:27:33;10.98;;;5.65;;
48853;SDS011;34673;52.808;17.856;2022-08-19T13:30:01;10.15;;;5.88;;
48853;SDS011;34673;52.808;17.856;2022-08-19T13:32:49;14.68;;;5.65;;
48853;SDS011;34673;52.808;17.856;2022-08-19T13:35:35;9.32;;;5.25;;
48853;SDS011;34673;52.808;17.856;2022-08-19T13:38:02;12.50;;;5.70;;
48853;SDS011;34673;52.808;17.856;2022-08-19T13:40:37;11.05;;;5.18;;
48853;SDS011;34673;52.808;17.856;2022-08-19T13:43:07;8.90;;;4.80;;
48853;SDS011;34673;52.808;17.856;2022-08-19T13:45:48;7.57;;;5.35;;
48853;SDS011;34673;52.808;17.856;2022-08-19T13:48:16;8.55;;;4.90;;
48853;SDS011;34673;52.808;17.856;2022-08-19T13:50:45;9.13;;;5.13;;
48853;SDS011;34673;52.808;17.856;2022-08-19T13:53:13;11.43;;;4.90;;
48853;SDS011;34673;52.808;17.856;2022-08-19T13:55:42;11.63;;;5.50;;
48853;SDS011;34673;52.808;17.856;2022-08-19T13:58:10;12.73;;;5.35;;
48853;SDS011;34673;52.808;17.856;2022-08-19T14:00:39;10.55;;;5.00;;
48853;SDS011;34673;52.808;17.856;2022-08-19T14:03:09;7.82;;;5.22;;
48853;SDS011;34673;52.808;17.856;2022-08-19T14:05:37;7.43;;;4.40;;
48853;SDS011;34673;52.808;17.856;2022-08-19T14:08:05;9.20;;;4.72;;
48853;SDS011;34673;52.808;17.856;2022-08-19T14:10:33;7.82;;;4.50;;
48853;SDS011;34673;52.808;17.856;2022-08-19T14:13:02;7.93;;;4.88;;
48853;SDS011;34673;52.808;17.856;2022-08-19T14:15:30;8.73;;;5.00;;
48853;SDS011;34673;52.808;17.856;2022-08-19T14:17:58;6.75;;;5.05;;
48853;SDS011;34673;52.808;17.856;2022-08-19T14:20:25;7.82;;;4.32;;
48853;SDS011;34673;52.808;17.856;2022-08-19T14:22:53;7.97;;;4.50;;
48853;SDS011;34673;52.808;17.856;2022-08-19T14:25:23;10.93;;;4.70;;
48853;SDS011;34673;52.808;17.856;2022-08-19T14:27:53;6.60;;;4.13;;
48853;SDS011;34673;52.808;17.856;2022-08-19T14:30:22;6.78;;;3.90;;
48853;SDS011;34673;52.808;17.856;2022-08-19T14:32:53;6.00;;;3.95;;
48853;SDS011;34673;52.808;17.856;2022-08-19T14:35:22;6.60;;;4.20;;
48853;SDS011;34673;52.808;17.856;2022-08-19T14:37:50;8.40;;;3.80;;
48853;SDS011;34673;52.808;17.856;2022-08-19T14:40:23;8.32;;;4.00;;
48853;SDS011;34673;52.808;17.856;2022-08-19T14:42:52;7.18;;;3.80;;
48853;SDS011;34673;52.808;17.856;2022-08-19T14:45:22;8.98;;;4.43;;
48853;SDS011;34673;52.808;17.856;2022-08-19T14:47:49;6.22;;;3.78;;
48853;SDS011;34673;52.808;17.856;2022-08-19T14:50:17;10.60;;;4.20;;
48853;SDS011;34673;52.808;17.856;2022-08-19T14:52:46;7.50;;;4.45;;
48853;SDS011;34673;52.808;17.856;2022-08-19T14:55:15;8.18;;;4.38;;
48853;SDS011;34673;52.808;17.856;2022-08-19T14:57:44;9.33;;;3.93;;
48853;SDS011;34673;52.808;17.856;2022-08-19T15:00:12;9.15;;;4.53;;
48853;SDS011;34673;52.808;17.856;2022-08-19T15:02:41;7.80;;;4.03;;
48853;SDS011;34673;52.808;17.856;2022-08-19T15:05:11;9.73;;;4.95;;